sensor_id;sensor_type;location;lat;lon;timestamp;P1;durP1;ratioP1;P2;durP2;ratioP2
35444;SDS011;21562;49.476;6.086;2023-02-28T00:00:50;3.60;;;0.90;;
35444;SDS011;21562;49.476;6.086;2023-02-28T00:03:16;1.95;;;1.05;;
35444;SDS011;21562;49.476;6.086;2023-02-28T00:05:42;1.95;;;0.90;;
35444;SDS011;21562;49.476;6.086;2023-02-28T00:08:08;3.75;;;0.88;;
35444;SDS011;21562;49.476;6.086;2023-02-28T00:10:34;2.55;;;0.70;;
35444;SDS011;21562;49.476;6.086;2023-02-28T00:13:01;2.55;;;1.20;;
35444;SDS011;21562;49.476;6.086;2023-02-28T00:15:29;4.57;;;1.23;;
35444;SDS011;21562;49.476;6.086;2023-02-28T00:17:55;2.42;;;0.90;;
35444;SDS011;21562;49.476;6.086;2023-02-28T00:20:21;2.70;;;1.10;;
35444;SDS011;21562;49.476;6.086;2023-02-28T00:22:49;2.95;;;1.08;;
35444;SDS011;21562;49.476;6.086;2023-02-28T00:25:17;2.83;;;0.85;;
35444;SDS011;21562;49.476;6.086;2023-02-28T00:27:45;3.70;;;1.13;;
35444;SDS011;21562;49.476;6.086;2023-02-28T00:30:12;7.43;;;1.17;;
35444;SDS011;21562;49.476;6.086;2023-02-28T00:32:39;2.38;;;1.10;;
35444;SDS011;21562;49.476;6.086;2023-02-28T00:35:05;2.13;;;1.30;;
35444;SDS011;21562;49.476;6.086;2023-02-28T00:37:32;3.20;;;0.80;;
35444;SDS011;21562;49.476;6.086;2023-02-28T00:39:58;4.57;;;1.48;;
35444;SDS011;21562;49.476;6.086;2023-02-28T00:42:24;1.67;;;1.00;;
35444;SDS011;21562;49.476;6.086;2023-02-28T00:44:50;3.72;;;1.40;;
35444;SDS011;21562;49.476;6.086;2023-02-28T00:47:15;4.85;;;1.55;;
35444;SDS011;21562;49.476;6.086;2023-02-28T00:49:41;3.17;;;0.95;;
35444;SDS011;21562;49.476;6.086;2023-02-28T00:52:07;3.80;;;1.50;;
35444;SDS011;21562;49.476;6.086;2023-02-28T00:54:33;2.30;;;1.20;;
35444;SDS011;21562;49.476;6.086;2023-02-28T00:56:58;2.53;;;1.13;;
35444;SDS011;21562;49.476;6.086;2023-02-28T00:59:24;4.40;;;1.10;;
35444;SDS011;21562;49.476;6.086;2023-02-28T01:01:50;2.40;;;1.25;;
35444;SDS011;21562;49.476;6.086;2023-02-28T01:04:16;5.13;;;1.20;;
35444;SDS011;21562;49.476;6.086;2023-02-28T01:06:41;1.80;;;0.98;;
35444;SDS011;21562;49.476;6.086;2023-02-28T01:09:07;3.47;;;0.93;;
35444;SDS011;21562;49.476;6.086;2023-02-28T01:11:33;7.03;;;1.48;;
35444;SDS011;21562;49.476;6.086;2023-02-28T01:13:59;4.90;;;0.80;;
35444;SDS011;21562;49.476;6.086;2023-02-28T01:16:25;2.42;;;1.05;;
35444;SDS011;21562;49.476;6.086;2023-02-28T01:18:52;4.45;;;1.20;;
35444;SDS011;21562;49.476;6.086;2023-02-28T01:21:18;2.65;;;1.23;;
35444;SDS011;21562;49.476;6.086;2023-02-28T01:23:46;3.90;;;1.08;;
35444;SDS011;21562;49.476;6.086;2023-02-28T01:26:17;6.35;;;1.50;;
35444;SDS011;21562;49.476;6.086;2023-02-28T01:28:44;4.32;;;1.23;;
35444;SDS011;21562;49.476;6.086;2023-02-28T01:31:10;4.22;;;1.50;;
35444;SDS011;21562;49.476;6.086;2023-02-28T01:33:36;4.82;;;1.40;;
35444;SDS011;21562;49.476;6.086;2023-02-28T01:36:04;3.75;;;1.25;;
35444;SDS011;21562;49.476;6.086;2023-02-28T01:38:31;3.78;;;1.10;;
35444;SDS011;21562;49.476;6.086;2023-02-28T01:40:58;7.18;;;1.55;;
35444;SDS011;21562;49.476;6.086;2023-02-28T01:43:52;2.30;;;1.20;;
35444;SDS011;21562;49.476;6.086;2023-02-28T01:46:09;6.00;;;1.20;;
35444;SDS011;21562;49.476;6.086;2023-02-28T01:48:36;6.32;;;1.25;;
35444;SDS011;21562;49.476;6.086;2023-02-28T01:51:11;5.60;;;1.58;;
35444;SDS011;21562;49.476;6.086;2023-02-28T01:53:42;4.35;;;1.83;;
35444;SDS011;21562;49.476;6.086;2023-02-28T01:56:12;5.20;;;1.23;;
35444;SDS011;21562;49.476;6.086;2023-02-28T01:58:45;4.45;;;1.30;;
35444;SDS011;21562;49.476;6.086;2023-02-28T02:01:12;3.50;;;1.20;;
35444;SDS011;21562;49.476;6.086;2023-02-28T02:03:47;2.80;;;1.42;;
35444;SDS011;21562;49.476;6.086;2023-02-28T02:06:20;6.13;;;1.83;;
35444;SDS011;21562;49.476;6.086;2023-02-28T02:09:05;4.72;;;1.20;;
35444;SDS011;21562;49.476;6.086;2023-02-28T02:11:31;4.15;;;1.42;;
35444;SDS011;21562;49.476;6.086;2023-02-28T02:14:44;5.85;;;1.55;;
35444;SDS011;21562;49.476;6.086;2023-02-28T02:19:33;2.40;;;1.38;;
35444;SDS011;21562;49.476;6.086;2023-02-28T02:25:18;5.40;;;1.42;;
35444;SDS011;21562;49.476;6.086;2023-02-28T02:39:02;6.57;;;1.85;;
35444;SDS011;21562;49.476;6.086;2023-02-28T02:41:40;5.40;;;1.77;;
35444;SDS011;21562;49.476;6.086;2023-02-28T02:44:30;5.25;;;1.73;;
35444;SDS011;21562;49.476;6.086;2023-02-28T02:47:20;4.25;;;2.10;;
35444;SDS011;21562;49.476;6.086;2023-02-28T02:49:50;4.60;;;2.05;;
35444;SDS011;21562;49.476;6.086;2023-02-28T02:52:20;3.47;;;1.60;;
35444;SDS011;21562;49.476;6.086;2023-02-28T02:54:50;3.75;;;2.03;;
35444;SDS011;21562;49.476;6.086;2023-02-28T02:57:27;2.83;;;1.50;;
35444;SDS011;21562;49.476;6.086;2023-02-28T03:00:02;2.88;;;1.33;;
35444;SDS011;21562;49.476;6.086;2023-02-28T03:02:33;3.35;;;1.63;;
35444;SDS011;21562;49.476;6.086;2023-02-28T03:05:47;4.90;;;2.15;;
35444;SDS011;21562;49.476;6.086;2023-02-28T03:07:50;5.00;;;1.80;;
35444;SDS011;21562;49.476;6.086;2023-02-28T03:18:49;3.17;;;1.77;;
35444;SDS011;21562;49.476;6.086;2023-02-28T03:21:56;5.25;;;2.15;;
35444;SDS011;21562;49.476;6.086;2023-02-28T03:27:08;3.05;;;1.98;;
35444;SDS011;21562;49.476;6.086;2023-02-28T03:29:58;2.15;;;1.63;;
35444;SDS011;21562;49.476;6.086;2023-02-28T03:32:33;3.20;;;2.08;;
35444;SDS011;21562;49.476;6.086;2023-02-28T03:35:08;3.05;;;1.80;;
35444;SDS011;21562;49.476;6.086;2023-02-28T03:37:39;6.90;;;1.95;;
35444;SDS011;21562;49.476;6.086;2023-02-28T03:40:14;3.65;;;1.48;;
35444;SDS011;21562;49.476;6.086;2023-02-28T03:42:44;5.50;;;1.55;;
35444;SDS011;21562;49.476;6.086;2023-02-28T03:45:35;3.80;;;1.50;;
35444;SDS011;21562;49.476;6.086;2023-02-28T03:50:45;3.83;;;1.63;;
35444;SDS011;21562;49.476;6.086;2023-02-28T03:56:06;4.15;;;1.58;;
35444;SDS011;21562;49.476;6.086;2023-02-28T03:58:41;4.57;;;1.52;;
35444;SDS011;21562;49.476;6.086;2023-02-28T04:01:35;3.30;;;1.75;;
35444;SDS011;21562;49.476;6.086;2023-02-28T04:04:01;6.90;;;1.80;;
35444;SDS011;21562;49.476;6.086;2023-02-28T04:06:27;3.78;;;1.63;;
35444;SDS011;21562;49.476;6.086;2023-02-28T04:08:55;5.00;;;2.38;;
35444;SDS011;21562;49.476;6.086;2023-02-28T04:11:27;3.47;;;1.75;;
35444;SDS011;21562;49.476;6.086;2023-02-28T04:14:02;2.90;;;1.90;;
35444;SDS011;21562;49.476;6.086;2023-02-28T04:16:29;5.97;;;1.77;;
35444;SDS011;21562;49.476;6.086;2023-02-28T04:18:56;3.53;;;1.85;;
35444;SDS011;21562;49.476;6.086;2023-02-28T04:21:29;3.67;;;1.50;;
35444;SDS011;21562;49.476;6.086;2023-02-28T04:23:55;3.92;;;1.88;;
35444;SDS011;21562;49.476;6.086;2023-02-28T04:26:25;2.85;;;1.70;;
35444;SDS011;21562;49.476;6.086;2023-02-28T04:29:01;2.95;;;1.70;;
35444;SDS011;21562;49.476;6.086;2023-02-28T04:31:30;3.67;;;1.63;;
35444;SDS011;21562;49.476;6.086;2023-02-28T04:33:56;3.80;;;1.48;;
35444;SDS011;21562;49.476;6.086;2023-02-28T04:36:22;5.93;;;1.95;;
35444;SDS011;21562;49.476;6.086;2023-02-28T04:38:48;2.92;;;1.80;;
35444;SDS011;21562;49.476;6.086;2023-02-28T04:41:14;2.88;;;1.70;;
35444;SDS011;21562;49.476;6.086;2023-02-28T04:43:40;3.70;;;1.77;;
35444;SDS011;21562;49.476;6.086;2023-02-28T04:46:06;4.30;;;2.15;;
35444;SDS011;21562;49.476;6.086;2023-02-28T04:48:33;2.80;;;1.55;;
35444;SDS011;21562;49.476;6.086;2023-02-28T04:51:01;5.72;;;2.25;;
35444;SDS011;21562;49.476;6.086;2023-02-28T04:53:28;4.18;;;2.08;;
35444;SDS011;21562;49.476;6.086;2023-02-28T04:55:54;10.55;;;2.70;;
35444;SDS011;21562;49.476;6.086;2023-02-28T04:58:21;4.97;;;1.77;;
35444;SDS011;21562;49.476;6.086;2023-02-28T05:00:50;4.13;;;2.10;;
35444;SDS011;21562;49.476;6.086;2023-02-28T05:03:16;4.55;;;2.55;;
35444;SDS011;21562;49.476;6.086;2023-02-28T05:05:42;8.52;;;3.17;;
35444;SDS011;21562;49.476;6.086;2023-02-28T05:08:07;6.32;;;2.63;;
35444;SDS011;21562;49.476;6.086;2023-02-28T05:10:34;6.25;;;2.65;;
35444;SDS011;21562;49.476;6.086;2023-02-28T05:13:00;7.63;;;3.00;;
35444;SDS011;21562;49.476;6.086;2023-02-28T05:15:26;9.02;;;3.72;;
35444;SDS011;21562;49.476;6.086;2023-02-28T05:17:52;7.20;;;3.40;;
35444;SDS011;21562;49.476;6.086;2023-02-28T05:20:17;8.02;;;3.53;;
35444;SDS011;21562;49.476;6.086;2023-02-28T05:22:43;7.60;;;3.53;;
35444;SDS011;21562;49.476;6.086;2023-02-28T05:25:13;8.05;;;3.63;;
35444;SDS011;21562;49.476;6.086;2023-02-28T05:27:43;9.75;;;3.75;;
35444;SDS011;21562;49.476;6.086;2023-02-28T05:30:09;11.88;;;4.68;;
35444;SDS011;21562;49.476;6.086;2023-02-28T05:32:39;8.10;;;4.45;;
35444;SDS011;21562;49.476;6.086;2023-02-28T05:35:08;10.43;;;6.65;;
35444;SDS011;21562;49.476;6.086;2023-02-28T05:37:35;8.68;;;4.45;;
35444;SDS011;21562;49.476;6.086;2023-02-28T05:40:02;9.02;;;4.45;;
35444;SDS011;21562;49.476;6.086;2023-02-28T05:42:31;12.88;;;4.85;;
35444;SDS011;21562;49.476;6.086;2023-02-28T05:44:57;11.30;;;4.50;;
35444;SDS011;21562;49.476;6.086;2023-02-28T05:47:23;12.50;;;5.55;;
35444;SDS011;21562;49.476;6.086;2023-02-28T05:49:49;10.25;;;4.80;;
35444;SDS011;21562;49.476;6.086;2023-02-28T05:52:15;10.82;;;4.93;;
35444;SDS011;21562;49.476;6.086;2023-02-28T05:54:40;15.30;;;5.85;;
35444;SDS011;21562;49.476;6.086;2023-02-28T05:57:06;13.93;;;5.43;;
35444;SDS011;21562;49.476;6.086;2023-02-28T05:59:32;11.18;;;5.78;;
35444;SDS011;21562;49.476;6.086;2023-02-28T06:01:58;10.18;;;4.63;;
35444;SDS011;21562;49.476;6.086;2023-02-28T06:04:23;11.13;;;5.47;;
35444;SDS011;21562;49.476;6.086;2023-02-28T06:06:50;9.63;;;5.38;;
35444;SDS011;21562;49.476;6.086;2023-02-28T06:09:16;9.38;;;5.30;;
35444;SDS011;21562;49.476;6.086;2023-02-28T06:11:42;14.32;;;5.70;;
35444;SDS011;21562;49.476;6.086;2023-02-28T06:14:12;10.27;;;5.50;;
35444;SDS011;21562;49.476;6.086;2023-02-28T06:16:40;7.35;;;4.80;;
35444;SDS011;21562;49.476;6.086;2023-02-28T06:19:06;12.25;;;5.95;;
35444;SDS011;21562;49.476;6.086;2023-02-28T06:21:31;13.02;;;5.57;;
35444;SDS011;21562;49.476;6.086;2023-02-28T06:23:57;16.20;;;6.32;;
35444;SDS011;21562;49.476;6.086;2023-02-28T06:26:23;11.57;;;5.88;;
35444;SDS011;21562;49.476;6.086;2023-02-28T06:28:49;11.45;;;5.30;;
35444;SDS011;21562;49.476;6.086;2023-02-28T06:31:16;14.82;;;6.00;;
35444;SDS011;21562;49.476;6.086;2023-02-28T06:33:43;14.18;;;6.18;;
35444;SDS011;21562;49.476;6.086;2023-02-28T06:36:10;12.98;;;6.10;;
35444;SDS011;21562;49.476;6.086;2023-02-28T06:38:38;9.32;;;6.13;;
35444;SDS011;21562;49.476;6.086;2023-02-28T06:41:05;12.05;;;6.32;;
35444;SDS011;21562;49.476;6.086;2023-02-28T06:43:32;11.18;;;6.07;;
35444;SDS011;21562;49.476;6.086;2023-02-28T06:46:00;15.75;;;6.93;;
35444;SDS011;21562;49.476;6.086;2023-02-28T06:48:28;16.40;;;6.32;;
35444;SDS011;21562;49.476;6.086;2023-02-28T06:51:06;12.98;;;6.10;;
35444;SDS011;21562;49.476;6.086;2023-02-28T06:53:34;17.52;;;7.22;;
35444;SDS011;21562;49.476;6.086;2023-02-28T06:56:02;18.15;;;7.63;;
35444;SDS011;21562;49.476;6.086;2023-02-28T06:58:30;20.02;;;6.85;;
35444;SDS011;21562;49.476;6.086;2023-02-28T07:00:56;15.23;;;6.78;;
35444;SDS011;21562;49.476;6.086;2023-02-28T07:03:22;12.43;;;5.80;;
35444;SDS011;21562;49.476;6.086;2023-02-28T07:05:48;11.65;;;5.57;;
35444;SDS011;21562;49.476;6.086;2023-02-28T07:08:13;14.95;;;6.72;;
35444;SDS011;21562;49.476;6.086;2023-02-28T07:10:40;14.15;;;6.53;;
35444;SDS011;21562;49.476;6.086;2023-02-28T07:13:06;20.70;;;6.85;;
35444;SDS011;21562;49.476;6.086;2023-02-28T07:15:33;13.55;;;6.38;;
35444;SDS011;21562;49.476;6.086;2023-02-28T07:17:59;12.90;;;6.38;;
35444;SDS011;21562;49.476;6.086;2023-02-28T07:20:24;15.23;;;6.63;;
35444;SDS011;21562;49.476;6.086;2023-02-28T07:22:50;13.00;;;7.07;;
35444;SDS011;21562;49.476;6.086;2023-02-28T07:25:20;11.90;;;6.40;;
35444;SDS011;21562;49.476;6.086;2023-02-28T07:27:53;10.32;;;6.45;;
35444;SDS011;21562;49.476;6.086;2023-02-28T07:30:19;15.68;;;6.57;;
35444;SDS011;21562;49.476;6.086;2023-02-28T07:32:45;12.70;;;6.07;;
35444;SDS011;21562;49.476;6.086;2023-02-28T07:35:11;11.43;;;6.03;;
35444;SDS011;21562;49.476;6.086;2023-02-28T07:37:37;12.77;;;6.20;;
35444;SDS011;21562;49.476;6.086;2023-02-28T07:40:04;10.60;;;6.20;;
35444;SDS011;21562;49.476;6.086;2023-02-28T07:42:38;14.32;;;5.70;;
35444;SDS011;21562;49.476;6.086;2023-02-28T07:45:05;14.20;;;6.30;;
35444;SDS011;21562;49.476;6.086;2023-02-28T07:47:32;18.23;;;6.78;;
35444;SDS011;21562;49.476;6.086;2023-02-28T07:49:57;15.40;;;7.00;;
35444;SDS011;21562;49.476;6.086;2023-02-28T07:52:23;11.48;;;5.90;;
35444;SDS011;21562;49.476;6.086;2023-02-28T07:54:49;10.43;;;5.88;;
35444;SDS011;21562;49.476;6.086;2023-02-28T07:57:15;19.15;;;6.38;;
35444;SDS011;21562;49.476;6.086;2023-02-28T07:59:41;11.07;;;5.53;;
35444;SDS011;21562;49.476;6.086;2023-02-28T08:02:10;11.95;;;6.25;;
35444;SDS011;21562;49.476;6.086;2023-02-28T08:04:39;14.82;;;6.53;;
35444;SDS011;21562;49.476;6.086;2023-02-28T08:07:04;10.05;;;6.47;;
35444;SDS011;21562;49.476;6.086;2023-02-28T08:09:30;9.10;;;5.90;;
35444;SDS011;21562;49.476;6.086;2023-02-28T08:11:55;14.00;;;6.40;;
35444;SDS011;21562;49.476;6.086;2023-02-28T08:14:21;12.15;;;6.45;;
35444;SDS011;21562;49.476;6.086;2023-02-28T08:16:47;13.75;;;5.97;;
35444;SDS011;21562;49.476;6.086;2023-02-28T08:19:13;12.45;;;5.93;;
35444;SDS011;21562;49.476;6.086;2023-02-28T08:21:38;13.75;;;5.93;;
35444;SDS011;21562;49.476;6.086;2023-02-28T08:24:05;29.02;;;7.32;;
35444;SDS011;21562;49.476;6.086;2023-02-28T08:26:31;13.05;;;6.00;;
35444;SDS011;21562;49.476;6.086;2023-02-28T08:28:56;8.73;;;5.18;;
35444;SDS011;21562;49.476;6.086;2023-02-28T08:31:22;7.82;;;4.95;;
35444;SDS011;21562;49.476;6.086;2023-02-28T08:33:48;14.05;;;5.82;;
35444;SDS011;21562;49.476;6.086;2023-02-28T08:36:16;10.00;;;5.97;;
35444;SDS011;21562;49.476;6.086;2023-02-28T08:38:41;9.32;;;6.03;;
35444;SDS011;21562;49.476;6.086;2023-02-28T08:41:09;13.80;;;5.68;;
35444;SDS011;21562;49.476;6.086;2023-02-28T08:43:37;13.68;;;5.57;;
35444;SDS011;21562;49.476;6.086;2023-02-28T08:46:03;12.05;;;5.45;;
35444;SDS011;21562;49.476;6.086;2023-02-28T08:48:30;11.60;;;6.20;;
35444;SDS011;21562;49.476;6.086;2023-02-28T08:50:58;14.57;;;5.50;;
35444;SDS011;21562;49.476;6.086;2023-02-28T08:53:24;9.43;;;5.32;;
35444;SDS011;21562;49.476;6.086;2023-02-28T08:55:57;8.80;;;4.88;;
35444;SDS011;21562;49.476;6.086;2023-02-28T08:58:24;11.18;;;5.00;;
35444;SDS011;21562;49.476;6.086;2023-02-28T09:00:50;9.82;;;4.68;;
35444;SDS011;21562;49.476;6.086;2023-02-28T09:03:15;11.52;;;5.07;;
35444;SDS011;21562;49.476;6.086;2023-02-28T09:05:50;8.10;;;4.95;;
35444;SDS011;21562;49.476;6.086;2023-02-28T09:08:24;11.05;;;4.78;;
35444;SDS011;21562;49.476;6.086;2023-02-28T09:10:52;9.65;;;4.50;;
35444;SDS011;21562;49.476;6.086;2023-02-28T09:13:19;9.02;;;4.43;;
35444;SDS011;21562;49.476;6.086;2023-02-28T09:15:45;8.75;;;4.60;;
35444;SDS011;21562;49.476;6.086;2023-02-28T09:18:11;10.32;;;4.20;;
35444;SDS011;21562;49.476;6.086;2023-02-28T09:20:37;9.18;;;4.55;;
35444;SDS011;21562;49.476;6.086;2023-02-28T09:23:04;9.38;;;4.50;;
35444;SDS011;21562;49.476;6.086;2023-02-28T09:25:31;9.00;;;4.07;;
35444;SDS011;21562;49.476;6.086;2023-02-28T09:27:56;10.18;;;4.40;;
35444;SDS011;21562;49.476;6.086;2023-02-28T09:30:22;7.20;;;4.05;;
35444;SDS011;21562;49.476;6.086;2023-02-28T09:32:47;7.25;;;3.80;;
35444;SDS011;21562;49.476;6.086;2023-02-28T09:35:20;8.35;;;3.88;;
35444;SDS011;21562;49.476;6.086;2023-02-28T09:37:47;7.22;;;3.70;;
35444;SDS011;21562;49.476;6.086;2023-02-28T09:40:14;6.28;;;3.85;;
35444;SDS011;21562;49.476;6.086;2023-02-28T09:42:44;10.85;;;4.00;;
35444;SDS011;21562;49.476;6.086;2023-02-28T09:47:58;14.43;;;4.20;;
35444;SDS011;21562;49.476;6.086;2023-02-28T09:50:33;6.72;;;3.42;;
35444;SDS011;21562;49.476;6.086;2023-02-28T09:53:01;5.85;;;3.33;;
35444;SDS011;21562;49.476;6.086;2023-02-28T09:55:37;7.45;;;3.90;;
35444;SDS011;21562;49.476;6.086;2023-02-28T09:58:11;5.72;;;3.20;;
35444;SDS011;21562;49.476;6.086;2023-02-28T10:01:03;5.80;;;3.57;;
35444;SDS011;21562;49.476;6.086;2023-02-28T10:03:42;7.35;;;2.72;;
35444;SDS011;21562;49.476;6.086;2023-02-28T10:06:36;6.93;;;3.25;;
35444;SDS011;21562;49.476;6.086;2023-02-28T10:09:14;9.93;;;3.70;;
35444;SDS011;21562;49.476;6.086;2023-02-28T10:11:52;9.63;;;3.58;;
35444;SDS011;21562;49.476;6.086;2023-02-28T10:14:23;8.93;;;3.67;;
35444;SDS011;21562;49.476;6.086;2023-02-28T10:19:46;16.55;;;4.10;;
35444;SDS011;21562;49.476;6.086;2023-02-28T10:22:29;8.23;;;3.70;;
35444;SDS011;21562;49.476;6.086;2023-02-28T10:25:01;10.05;;;4.30;;
35444;SDS011;21562;49.476;6.086;2023-02-28T10:27:40;8.18;;;3.95;;
35444;SDS011;21562;49.476;6.086;2023-02-28T10:30:05;13.52;;;4.10;;
35444;SDS011;21562;49.476;6.086;2023-02-28T10:32:35;5.75;;;3.38;;
35444;SDS011;21562;49.476;6.086;2023-02-28T10:37:37;11.07;;;3.72;;
35444;SDS011;21562;49.476;6.086;2023-02-28T10:40:05;13.65;;;3.70;;
35444;SDS011;21562;49.476;6.086;2023-02-28T10:42:36;7.22;;;4.00;;
35444;SDS011;21562;49.476;6.086;2023-02-28T10:45:09;10.73;;;4.47;;
35444;SDS011;21562;49.476;6.086;2023-02-28T10:47:53;15.30;;;3.95;;
35444;SDS011;21562;49.476;6.086;2023-02-28T10:51:05;6.65;;;3.55;;
35444;SDS011;21562;49.476;6.086;2023-02-28T11:01:15;11.15;;;3.60;;
35444;SDS011;21562;49.476;6.086;2023-02-28T11:04:18;5.05;;;3.33;;
35444;SDS011;21562;49.476;6.086;2023-02-28T11:06:47;6.40;;;3.45;;
35444;SDS011;21562;49.476;6.086;2023-02-28T11:09:23;12.57;;;3.35;;
35444;SDS011;21562;49.476;6.086;2023-02-28T11:12:01;7.95;;;3.63;;
35444;SDS011;21562;49.476;6.086;2023-02-28T11:14:30;8.10;;;3.08;;
35444;SDS011;21562;49.476;6.086;2023-02-28T11:17:00;7.07;;;3.65;;
35444;SDS011;21562;49.476;6.086;2023-02-28T11:19:40;6.47;;;3.58;;
35444;SDS011;21562;49.476;6.086;2023-02-28T11:22:11;7.57;;;3.00;;
35444;SDS011;21562;49.476;6.086;2023-02-28T11:24:54;10.32;;;3.63;;
35444;SDS011;21562;49.476;6.086;2023-02-28T11:29:59;7.22;;;4.03;;
35444;SDS011;21562;49.476;6.086;2023-02-28T11:32:26;7.95;;;3.78;;
35444;SDS011;21562;49.476;6.086;2023-02-28T11:37:36;8.02;;;3.60;;
35444;SDS011;21562;49.476;6.086;2023-02-28T11:40:09;12.60;;;3.90;;
35444;SDS011;21562;49.476;6.086;2023-02-28T11:43:00;6.30;;;3.50;;
35444;SDS011;21562;49.476;6.086;2023-02-28T11:46:22;35.25;;;6.55;;
35444;SDS011;21562;49.476;6.086;2023-02-28T11:51:47;6.00;;;3.35;;
35444;SDS011;21562;49.476;6.086;2023-02-28T11:57:44;7.10;;;3.63;;
35444;SDS011;21562;49.476;6.086;2023-02-28T12:03:22;14.38;;;4.80;;
35444;SDS011;21562;49.476;6.086;2023-02-28T12:27:10;8.30;;;4.20;;
35444;SDS011;21562;49.476;6.086;2023-02-28T12:29:46;12.35;;;4.80;;
35444;SDS011;21562;49.476;6.086;2023-02-28T12:32:20;10.75;;;4.75;;
35444;SDS011;21562;49.476;6.086;2023-02-28T12:37:35;12.60;;;4.43;;
35444;SDS011;21562;49.476;6.086;2023-02-28T12:40:22;10.30;;;5.80;;
35444;SDS011;21562;49.476;6.086;2023-02-28T12:42:52;8.40;;;4.93;;
35444;SDS011;21562;49.476;6.086;2023-02-28T12:45:24;8.73;;;4.55;;
35444;SDS011;21562;49.476;6.086;2023-02-28T12:47:55;8.35;;;4.63;;
35444;SDS011;21562;49.476;6.086;2023-02-28T12:50:25;8.80;;;5.07;;
35444;SDS011;21562;49.476;6.086;2023-02-28T12:58:28;8.65;;;4.68;;
35444;SDS011;21562;49.476;6.086;2023-02-28T13:09:40;21.25;;;5.32;;
35444;SDS011;21562;49.476;6.086;2023-02-28T13:12:15;16.23;;;5.07;;
35444;SDS011;21562;49.476;6.086;2023-02-28T13:14:41;10.32;;;4.72;;
35444;SDS011;21562;49.476;6.086;2023-02-28T13:19:38;8.52;;;4.75;;
35444;SDS011;21562;49.476;6.086;2023-02-28T13:22:04;17.88;;;5.22;;
35444;SDS011;21562;49.476;6.086;2023-02-28T13:24:47;6.55;;;4.10;;
35444;SDS011;21562;49.476;6.086;2023-02-28T13:33:19;8.50;;;4.15;;
35444;SDS011;21562;49.476;6.086;2023-02-28T13:36:01;12.18;;;4.35;;
35444;SDS011;21562;49.476;6.086;2023-02-28T13:38:41;8.73;;;4.70;;
35444;SDS011;21562;49.476;6.086;2023-02-28T13:43:59;13.38;;;4.03;;
35444;SDS011;21562;49.476;6.086;2023-02-28T13:46:26;13.15;;;4.47;;
35444;SDS011;21562;49.476;6.086;2023-02-28T13:48:52;8.20;;;4.85;;
35444;SDS011;21562;49.476;6.086;2023-02-28T13:54:30;7.82;;;4.22;;
35444;SDS011;21562;49.476;6.086;2023-02-28T13:57:16;9.70;;;5.40;;
35444;SDS011;21562;49.476;6.086;2023-02-28T14:00:13;11.55;;;5.03;;
35444;SDS011;21562;49.476;6.086;2023-02-28T14:05:41;10.10;;;4.78;;
35444;SDS011;21562;49.476;6.086;2023-02-28T14:08:10;14.80;;;4.93;;
35444;SDS011;21562;49.476;6.086;2023-02-28T14:10:47;10.45;;;5.35;;
35444;SDS011;21562;49.476;6.086;2023-02-28T14:18:30;10.25;;;4.65;;
35444;SDS011;21562;49.476;6.086;2023-02-28T14:23:52;14.10;;;5.20;;
35444;SDS011;21562;49.476;6.086;2023-02-28T14:26:51;7.85;;;5.00;;
35444;SDS011;21562;49.476;6.086;2023-02-28T14:32:31;12.90;;;4.57;;
35444;SDS011;21562;49.476;6.086;2023-02-28T14:35:20;8.88;;;4.93;;
35444;SDS011;21562;49.476;6.086;2023-02-28T14:37:47;8.93;;;4.63;;
35444;SDS011;21562;49.476;6.086;2023-02-28T14:40:22;10.10;;;5.40;;
35444;SDS011;21562;49.476;6.086;2023-02-28T14:42:56;12.30;;;5.03;;
35444;SDS011;21562;49.476;6.086;2023-02-28T14:45:29;8.90;;;4.57;;
35444;SDS011;21562;49.476;6.086;2023-02-28T14:47:55;13.60;;;4.85;;
35444;SDS011;21562;49.476;6.086;2023-02-28T14:50:30;9.38;;;4.50;;
35444;SDS011;21562;49.476;6.086;2023-02-28T14:52:58;7.85;;;4.05;;
35444;SDS011;21562;49.476;6.086;2023-02-28T14:55:34;8.60;;;4.35;;
35444;SDS011;21562;49.476;6.086;2023-02-28T14:58:02;6.68;;;4.22;;
35444;SDS011;21562;49.476;6.086;2023-02-28T15:00:48;6.22;;;4.00;;
35444;SDS011;21562;49.476;6.086;2023-02-28T15:06:05;7.30;;;4.97;;
35444;SDS011;21562;49.476;6.086;2023-02-28T15:08:37;10.07;;;4.65;;
35444;SDS011;21562;49.476;6.086;2023-02-28T15:11:11;11.20;;;4.55;;
35444;SDS011;21562;49.476;6.086;2023-02-28T15:13:45;12.52;;;5.10;;
35444;SDS011;21562;49.476;6.086;2023-02-28T15:19:00;11.15;;;5.82;;
35444;SDS011;21562;49.476;6.086;2023-02-28T15:26:38;10.05;;;6.32;;
35444;SDS011;21562;49.476;6.086;2023-02-28T15:29:07;12.73;;;5.88;;
35444;SDS011;21562;49.476;6.086;2023-02-28T15:34:21;7.13;;;5.60;;
35444;SDS011;21562;49.476;6.086;2023-02-28T15:36:56;9.68;;;5.60;;
35444;SDS011;21562;49.476;6.086;2023-02-28T15:39:23;10.77;;;6.38;;
35444;SDS011;21562;49.476;6.086;2023-02-28T15:41:52;7.53;;;5.47;;
35444;SDS011;21562;49.476;6.086;2023-02-28T15:44:36;9.45;;;5.65;;
35444;SDS011;21562;49.476;6.086;2023-02-28T15:47:03;13.25;;;4.90;;
35444;SDS011;21562;49.476;6.086;2023-02-28T15:49:37;9.63;;;5.05;;
35444;SDS011;21562;49.476;6.086;2023-02-28T15:52:09;7.43;;;4.93;;
35444;SDS011;21562;49.476;6.086;2023-02-28T15:54:40;9.60;;;4.70;;
35444;SDS011;21562;49.476;6.086;2023-02-28T15:57:10;8.57;;;5.05;;
35444;SDS011;21562;49.476;6.086;2023-02-28T15:59:48;10.63;;;4.88;;
35444;SDS011;21562;49.476;6.086;2023-02-28T16:07:25;10.82;;;5.28;;
35444;SDS011;21562;49.476;6.086;2023-02-28T16:09:51;10.52;;;5.13;;
35444;SDS011;21562;49.476;6.086;2023-02-28T16:12:18;10.52;;;5.40;;
35444;SDS011;21562;49.476;6.086;2023-02-28T16:14:45;8.35;;;5.50;;
35444;SDS011;21562;49.476;6.086;2023-02-28T16:17:20;11.77;;;5.97;;
35444;SDS011;21562;49.476;6.086;2023-02-28T16:19:48;7.65;;;5.07;;
35444;SDS011;21562;49.476;6.086;2023-02-28T16:22:43;7.82;;;5.25;;
35444;SDS011;21562;49.476;6.086;2023-02-28T16:25:14;10.10;;;5.00;;
35444;SDS011;21562;49.476;6.086;2023-02-28T16:27:48;8.82;;;5.40;;
35444;SDS011;21562;49.476;6.086;2023-02-28T16:30:31;14.93;;;6.47;;
35444;SDS011;21562;49.476;6.086;2023-02-28T16:33:13;12.10;;;5.78;;
35444;SDS011;21562;49.476;6.086;2023-02-28T16:36:17;11.18;;;5.80;;
35444;SDS011;21562;49.476;6.086;2023-02-28T16:38:45;11.13;;;6.45;;
35444;SDS011;21562;49.476;6.086;2023-02-28T16:41:20;12.60;;;5.82;;
35444;SDS011;21562;49.476;6.086;2023-02-28T16:43:51;11.77;;;5.63;;
35444;SDS011;21562;49.476;6.086;2023-02-28T16:46:19;9.15;;;5.80;;
35444;SDS011;21562;49.476;6.086;2023-02-28T16:48:46;13.55;;;6.72;;
35444;SDS011;21562;49.476;6.086;2023-02-28T16:51:16;12.13;;;6.15;;
35444;SDS011;21562;49.476;6.086;2023-02-28T16:53:42;10.45;;;6.05;;
35444;SDS011;21562;49.476;6.086;2023-02-28T16:56:16;13.18;;;6.43;;
35444;SDS011;21562;49.476;6.086;2023-02-28T16:58:47;9.82;;;5.80;;
35444;SDS011;21562;49.476;6.086;2023-02-28T17:01:14;10.27;;;5.72;;
35444;SDS011;21562;49.476;6.086;2023-02-28T17:03:40;9.80;;;5.32;;
35444;SDS011;21562;49.476;6.086;2023-02-28T17:06:17;14.35;;;5.72;;
35444;SDS011;21562;49.476;6.086;2023-02-28T17:08:46;14.20;;;6.78;;
35444;SDS011;21562;49.476;6.086;2023-02-28T17:11:13;14.30;;;7.32;;
35444;SDS011;21562;49.476;6.086;2023-02-28T17:13:38;11.68;;;6.43;;
35444;SDS011;21562;49.476;6.086;2023-02-28T17:16:04;13.77;;;6.80;;
35444;SDS011;21562;49.476;6.086;2023-02-28T17:18:33;10.82;;;6.50;;
35444;SDS011;21562;49.476;6.086;2023-02-28T17:21:01;16.75;;;7.20;;
35444;SDS011;21562;49.476;6.086;2023-02-28T17:23:27;15.10;;;7.45;;
35444;SDS011;21562;49.476;6.086;2023-02-28T17:25:52;10.75;;;6.45;;
35444;SDS011;21562;49.476;6.086;2023-02-28T17:28:22;17.85;;;7.10;;
35444;SDS011;21562;49.476;6.086;2023-02-28T17:30:48;16.05;;;7.63;;
35444;SDS011;21562;49.476;6.086;2023-02-28T17:33:15;13.70;;;7.72;;